Time;durP1;ratioP1;P1;durP2;ratioP2;P2;SDS_P1;SDS_P2;PMS_P1;PMS_P2;Temp;Humidity;BMP_temperature;BMP_pressure;BME280_temperature;BME280_humidity;BME280_pressure;Samples;Min_cycle;Max_cycle;Signal;HPM_P1;HPM_P2
2020/12/05 00:01:00;;;;;;;28.15;18.70;;;0.90;98.00;;;;;;5014085;28;20148;-70
2020/12/05 00:03:25;;;;;;;24.00;16.70;;;1.00;98.00;;;;;;5014859;28;20300;-70
2020/12/05 00:05:51;;;;;;;22.77;15.85;;;1.00;98.00;;;;;;5015232;28;20482;-70
2020/12/05 00:08:17;;;;;;;21.77;16.23;;;0.90;98.00;;;;;;5015008;28;20411;-70
2020/12/05 00:10:43;;;;;;;25.38;16.45;;;0.90;98.00;;;;;;5013786;28;20763;-70
2020/12/05 00:13:09;;;;;;;21.45;16.08;;;0.90;98.00;;;;;;5009138;28;20121;-70
2020/12/05 00:15:34;;;;;;;26.92;19.05;;;0.90;98.00;;;;;;5013460;28;20398;-70
2020/12/05 00:18:00;;;;;;;27.10;17.90;;;0.80;98.00;;;;;;5010697;28;20105;-71
2020/12/05 00:20:26;;;;;;;63.45;37.38;;;0.80;98.00;;;;;;5014556;28;20058;-71
2020/12/05 00:22:51;;;;;;;35.83;24.42;;;0.80;98.00;;;;;;5014785;28;20057;-71
2020/12/05 00:25:26;;;;;;;27.38;19.25;;;0.90;98.00;;;;;;5014709;28;20036;-70
2020/12/05 00:27:52;;;;;;;27.48;18.50;;;0.80;98.00;;;;;;5014059;28;20080;-69
2020/12/05 00:30:17;;;;;;;26.42;18.75;;;0.80;98.00;;;;;;5014827;28;20375;-71
2020/12/05 00:32:43;;;;;;;27.35;20.50;;;0.70;98.00;;;;;;5013642;28;20060;-70
2020/12/05 00:35:11;;;;;;;30.10;23.05;;;0.80;98.00;;;;;;5014527;28;20327;-70
2020/12/05 00:37:37;;;;;;;30.35;21.42;;;0.70;98.00;;;;;;5003231;28;20732;-69
2020/12/05 00:40:05;;;;;;;32.00;20.73;;;0.70;98.00;;;;;;5014390;28;20033;-70
2020/12/05 00:42:30;;;;;;;34.85;21.40;;;0.70;98.00;;;;;;5011244;28;20092;-70
2020/12/05 00:44:56;;;;;;;25.20;18.42;;;0.70;98.00;;;;;;5014664;28;20422;-70
2020/12/05 00:47:22;;;;;;;32.65;20.63;;;0.70;98.00;;;;;;5012639;28;20054;-70
2020/12/05 00:49:47;;;;;;;29.95;19.55;;;0.70;98.00;;;;;;5014360;28;20030;-69
2020/12/05 00:52:13;;;;;;;28.83;20.88;;;0.80;98.00;;;;;;5013073;28;20030;-69
2020/12/05 00:54:39;;;;;;;29.92;21.50;;;0.80;98.00;;;;;;5013315;28;20042;-69
2020/12/05 00:57:05;;;;;;;28.33;20.25;;;0.70;98.00;;;;;;5013959;28;20036;-70
2020/12/05 00:59:32;;;;;;;26.60;20.25;;;0.70;98.00;;;;;;5009272;28;20081;-69
2020/12/05 01:01:58;;;;;;;34.63;20.27;;;0.70;98.00;;;;;;5011527;28;20184;-70
2020/12/05 01:04:23;;;;;;;29.25;21.52;;;0.80;98.00;;;;;;5010923;28;20135;-70
2020/12/05 01:06:49;;;;;;;27.90;20.50;;;0.80;98.00;;;;;;5014528;28;20333;-70
2020/12/05 01:09:15;;;;;;;33.03;20.88;;;0.80;98.00;;;;;;5014236;28;20021;-70
2020/12/05 01:11:41;;;;;;;30.88;20.98;;;0.80;98.00;;;;;;5009946;28;20105;-70
2020/12/05 01:14:09;;;;;;;34.85;23.60;;;0.80;98.00;;;;;;4994600;28;20026;-70
2020/12/05 01:16:35;;;;;;;31.05;21.90;;;0.70;98.00;;;;;;5008519;28;20034;-70
2020/12/05 01:19:00;;;;;;;26.67;19.55;;;0.70;98.00;;;;;;5013490;28;20053;-70
2020/12/05 01:21:26;;;;;;;26.85;20.80;;;0.70;98.00;;;;;;5013093;28;20084;-71
2020/12/05 01:23:52;;;;;;;24.67;18.77;;;0.70;98.00;;;;;;5013183;28;20036;-70
2020/12/05 01:26:21;;;;;;;24.05;18.73;;;0.70;98.00;;;;;;5013124;28;20296;-70
2020/12/05 01:28:47;;;;;;;22.20;17.70;;;0.70;98.00;;;;;;5014329;28;20022;-70
2020/12/05 01:31:13;;;;;;;26.20;18.83;;;0.60;98.00;;;;;;5012563;28;20026;-71
2020/12/05 01:33:39;;;;;;;27.80;18.50;;;0.60;98.00;;;;;;5013908;28;20037;-70
2020/12/05 01:36:05;;;;;;;27.95;16.85;;;0.70;98.00;;;;;;5012040;28;20065;-70
2020/12/05 01:38:31;;;;;;;19.75;15.43;;;0.70;98.00;;;;;;5010292;28;20699;-71
2020/12/05 01:41:02;;;;;;;17.30;13.50;;;0.80;98.00;;;;;;5012393;28;20026;-70
2020/12/05 01:43:32;;;;;;;16.83;12.45;;;0.80;98.00;;;;;;5009398;28;20033;-71
2020/12/05 01:46:07;;;;;;;16.48;13.63;;;0.80;98.00;;;;;;5011971;28;20042;-71
2020/12/05 01:48:33;;;;;;;13.50;11.60;;;0.70;98.00;;;;;;5012152;28;20048;-72
2020/12/05 01:50:59;;;;;;;20.20;15.73;;;0.60;98.00;;;;;;5012303;28;20370;-71
2020/12/05 01:53:25;;;;;;;23.20;17.02;;;0.60;98.00;;;;;;5011187;28;20027;-72
2020/12/05 01:55:54;;;;;;;20.23;15.55;;;0.60;98.00;;;;;;5011597;28;20033;-71
2020/12/05 01:58:20;;;;;;;24.35;18.73;;;0.60;98.00;;;;;;5012514;28;20037;-70
2020/12/05 02:00:46;;;;;;;24.05;17.48;;;0.60;98.00;;;;;;5011950;28;20427;-71
2020/12/05 02:03:14;;;;;;;22.67;16.83;;;0.60;98.00;;;;;;5012716;28;20447;-70
2020/12/05 02:05:42;;;;;;;20.38;15.77;;;0.50;98.00;;;;;;5012366;28;20029;-70
2020/12/05 02:08:18;;;;;;;22.95;17.63;;;0.50;98.00;;;;;;5018458;28;20096;-71
2020/12/05 02:10:49;;;;;;;19.50;14.65;;;0.50;98.00;;;;;;5001826;28;20326;-71
2020/12/05 02:13:55;;;;;;;16.98;13.00;;;0.50;98.00;;;;;;5027199;28;20113;-70
2020/12/05 02:16:22;;;;;;;17.42;13.27;;;0.60;98.00;;;;;;5011631;28;20135;-70
2020/12/05 02:18:52;;;;;;;14.35;10.40;;;0.70;98.00;;;;;;5015570;28;20116;-71
2020/12/05 02:21:26;;;;;;;12.40;9.38;;;0.70;98.00;;;;;;5012421;28;20030;-71
2020/12/05 02:23:58;;;;;;;12.70;9.63;;;0.70;98.00;;;;;;5012862;28;20022;-71
2020/12/05 02:26:44;;;;;;;13.15;10.23;;;0.70;98.00;;;;;;5008515;28;20069;-72
2020/12/05 02:29:30;;;;;;;18.40;13.02;;;0.70;98.00;;;;;;5014511;28;20034;-71
2020/12/05 02:32:06;;;;;;;15.57;12.10;;;0.60;98.00;;;;;;5012311;28;20315;-71
2020/12/05 02:34:34;;;;;;;15.38;12.20;;;0.60;98.00;;;;;;5033196;28;20037;-71
2020/12/05 02:37:08;;;;;;;15.38;11.85;;;0.60;98.00;;;;;;5015063;28;20075;-70
2020/12/05 02:39:39;;;;;;;15.07;11.82;;;0.70;98.00;;;;;;5015294;28;20415;-71
2020/12/05 02:42:08;;;;;;;14.32;11.10;;;0.60;98.00;;;;;;5014133;28;20030;-72
2020/12/05 02:44:34;;;;;;;14.20;10.10;;;0.60;98.00;;;;;;5014807;28;20030;-71
2020/12/05 02:47:00;;;;;;;17.17;11.55;;;0.70;98.00;;;;;;5011682;28;20040;-72
2020/12/05 02:49:26;;;;;;;14.93;11.32;;;0.70;98.00;;;;;;5014780;28;20029;-73
2020/12/05 02:51:52;;;;;;;14.63;11.55;;;0.70;98.00;;;;;;5014855;28;20036;-73
2020/12/05 02:54:18;;;;;;;14.70;11.68;;;0.70;98.00;;;;;;5013468;28;20026;-73
2020/12/05 02:56:44;;;;;;;15.82;12.40;;;0.70;98.00;;;;;;5014911;28;20102;-73
2020/12/05 02:59:10;;;;;;;16.23;12.45;;;0.60;98.00;;;;;;5013983;28;20105;-73
2020/12/05 03:01:35;;;;;;;15.85;11.60;;;0.60;98.00;;;;;;5013419;28;20366;-73
2020/12/05 03:04:01;;;;;;;17.80;12.05;;;0.60;98.00;;;;;;5014903;28;20428;-74
2020/12/05 03:06:27;;;;;;;15.40;11.85;;;0.60;98.00;;;;;;5015043;28;20022;-73
2020/12/05 03:08:53;;;;;;;14.40;11.73;;;0.70;98.00;;;;;;5014800;28;20026;-74
2020/12/05 03:11:19;;;;;;;16.73;13.23;;;0.60;98.00;;;;;;5016356;28;20427;-72
2020/12/05 03:13:44;;;;;;;16.35;12.77;;;0.70;98.00;;;;;;5018423;28;20022;-74
2020/12/05 03:16:10;;;;;;;16.95;12.93;;;0.60;98.00;;;;;;5015773;28;20579;-73
2020/12/05 03:18:41;;;;;;;20.90;13.30;;;0.60;98.00;;;;;;5018538;28;20319;-73
2020/12/05 03:21:07;;;;;;;18.08;12.88;;;0.60;98.00;;;;;;5016596;28;20049;-74
2020/12/05 03:23:32;;;;;;;16.35;11.15;;;0.70;98.00;;;;;;5017860;28;20053;-72
2020/12/05 03:25:58;;;;;;;12.35;9.48;;;0.70;98.00;;;;;;5019202;28;20101;-74
2020/12/05 03:28:25;;;;;;;12.18;8.75;;;0.70;98.00;;;;;;5018420;28;20096;-73
2020/12/05 03:30:51;;;;;;;10.68;8.10;;;0.70;98.00;;;;;;5017409;28;20087;-73
2020/12/05 03:33:18;;;;;;;9.15;7.28;;;0.80;98.00;;;;;;5017952;28;20028;-73
2020/12/05 03:35:44;;;;;;;8.00;6.47;;;0.80;98.00;;;;;;5018632;28;20026;-73
2020/12/05 03:38:09;;;;;;;8.15;6.60;;;0.80;98.00;;;;;;5018286;28;20030;-73
2020/12/05 03:40:37;;;;;;;8.57;6.20;;;0.80;98.00;;;;;;5018260;28;20030;-73
2020/12/05 03:43:04;;;;;;;7.97;6.32;;;0.80;98.00;;;;;;5006444;28;20033;-72
2020/12/05 03:45:31;;;;;;;9.52;6.68;;;0.80;98.00;;;;;;5009600;28;20026;-73
2020/12/05 03:47:57;;;;;;;32.65;17.95;;;0.80;98.00;;;;;;5013852;28;20129;-73
2020/12/05 03:50:25;;;;;;;13.23;8.70;;;0.70;98.00;;;;;;5017471;28;20105;-73
2020/12/05 03:52:51;;;;;;;8.35;5.93;;;0.80;98.00;;;;;;5017067;28;20060;-73
2020/12/05 03:55:17;;;;;;;7.28;5.38;;;0.80;98.00;;;;;;5018292;28;20038;-73
2020/12/05 03:57:43;;;;;;;8.07;5.50;;;0.90;98.00;;;;;;5016946;28;20041;-73
2020/12/05 04:00:09;;;;;;;23.63;13.73;;;0.90;98.00;;;;;;5017784;28;20033;-73
2020/12/05 04:02:34;;;;;;;29.15;18.33;;;0.90;98.00;;;;;;5016788;28;20560;-73
2020/12/05 04:05:00;;;;;;;15.32;10.90;;;0.80;98.00;;;;;;5016330;28;20030;-73
2020/12/05 04:07:26;;;;;;;11.55;7.88;;;0.80;98.00;;;;;;5017823;28;20088;-73
2020/12/05 04:09:52;;;;;;;8.73;5.57;;;0.80;98.00;;;;;;5017939;28;20036;-73
2020/12/05 04:12:20;;;;;;;9.85;7.20;;;0.90;98.00;;;;;;5000100;28;20057;-73
2020/12/05 04:14:46;;;;;;;10.27;5.80;;;1.00;98.00;;;;;;5015379;28;20026;-73
2020/12/05 04:17:12;;;;;;;7.50;5.00;;;1.00;98.00;;;;;;5014962;28;20037;-73
2020/12/05 04:19:38;;;;;;;5.32;3.90;;;1.00;98.00;;;;;;5017277;28;20415;-73
2020/12/05 04:22:04;;;;;;;6.28;4.45;;;1.00;98.00;;;;;;5017163;28;20036;-72
2020/12/05 04:24:32;;;;;;;5.05;3.70;;;1.00;98.00;;;;;;5013781;28;20037;-72
2020/12/05 04:26:58;;;;;;;4.63;3.10;;;1.10;98.00;;;;;;5017961;28;20366;-72
2020/12/05 04:29:26;;;;;;;3.75;2.75;;;1.10;98.00;;;;;;5016075;28;20026;-71
2020/12/05 04:31:52;;;;;;;6.00;3.78;;;1.10;98.00;;;;;;5016325;28;20032;-71
2020/12/05 04:34:18;;;;;;;6.03;3.90;;;1.10;98.00;;;;;;5015994;28;20036;-71
2020/12/05 04:36:44;;;;;;;6.60;3.50;;;1.00;98.00;;;;;;5017428;28;20053;-71
2020/12/05 04:39:13;;;;;;;4.70;2.90;;;1.00;98.00;;;;;;5017426;28;20280;-73
2020/12/05 04:41:43;;;;;;;4.35;2.80;;;1.00;98.00;;;;;;5016432;28;20058;-73
2020/12/05 04:44:10;;;;;;;4.50;2.70;;;1.00;98.00;;;;;;5016437;28;20037;-72
2020/12/05 04:46:36;;;;;;;3.40;2.38;;;1.00;98.00;;;;;;5014866;28;20042;-72
2020/12/05 04:49:03;;;;;;;3.97;2.08;;;1.00;98.00;;;;;;5016505;28;20038;-71
2020/12/05 04:51:37;;;;;;;3.45;2.25;;;0.90;98.00;;;;;;5009980;28;20462;-72
2020/12/05 04:54:06;;;;;;;4.38;3.13;;;1.00;98.00;;;;;;5016646;28;20033;-72
2020/12/05 04:56:40;;;;;;;2.80;1.83;;;1.10;98.00;;;;;;5017232;28;20034;-72
2020/12/05 04:59:09;;;;;;;;;;;1.20;98.00;;;;;;5015945;28;20061;-72
2020/12/05 05:01:36;;;;;;;3.60;2.00;;;1.20;98.00;;;;;;5015858;28;19914;-72
2020/12/05 05:04:04;;;;;;;4.28;2.78;;;1.20;98.00;;;;;;5015330;28;20053;-72
2020/12/05 05:06:30;;;;;;;3.53;1.95;;;1.10;98.00;;;;;;5017234;28;20044;-72
2020/12/05 05:08:55;;;;;;;2.72;2.00;;;1.10;98.00;;;;;;5016436;28;20022;-71
2020/12/05 05:11:22;;;;;;;3.90;2.10;;;1.20;98.00;;;;;;5016794;28;20045;-71
2020/12/05 05:13:51;;;;;;;3.42;2.10;;;1.20;98.00;;;;;;5016228;28;20026;-71
2020/12/05 05:16:17;;;;;;;4.30;2.70;;;1.30;98.00;;;;;;5015439;28;20490;-71
2020/12/05 05:18:43;;;;;;;3.22;1.90;;;1.30;98.00;;;;;;5014764;28;20030;-71
2020/12/05 05:21:09;;;;;;;2.80;1.90;;;1.30;98.00;;;;;;5010580;28;20172;-71
2020/12/05 05:23:35;;;;;;;3.95;2.90;;;1.40;98.00;;;;;;5016385;28;20100;-71
2020/12/05 05:26:06;;;;;;;3.30;2.25;;;1.40;98.00;;;;;;5016559;28;20324;-71
2020/12/05 05:28:40;;;;;;;3.67;2.35;;;1.40;98.00;;;;;;5015992;28;20033;-71
2020/12/05 05:31:27;;;;;;;2.95;1.95;;;1.40;98.00;;;;;;5015048;28;20415;-71
2020/12/05 05:33:55;;;;;;;3.08;1.80;;;1.30;98.00;;;;;;5015895;28;20432;-71
2020/12/05 05:36:29;;;;;;;2.40;1.73;;;1.30;98.00;;;;;;5016247;28;20026;-71
2020/12/05 05:39:05;;;;;;;;;;;1.30;98.00;;;;;;5016413;28;20021;-71
2020/12/05 05:41:32;;;;;;;2.47;1.60;;;1.30;98.00;;;;;;5014802;28;19921;-71
2020/12/05 05:44:05;;;;;;;2.05;1.40;;;1.30;98.00;;;;;;5015830;28;20049;-71
2020/12/05 05:46:37;;;;;;;2.40;1.60;;;1.30;98.00;;;;;;5014430;28;20442;-71
2020/12/05 05:49:04;;;;;;;2.17;1.50;;;1.30;98.00;;;;;;5015181;28;20423;-72
2020/12/05 05:51:41;;;;;;;2.67;1.67;;;1.30;98.00;;;;;;5016431;28;20317;-71
2020/12/05 05:54:13;;;;;;;2.58;1.50;;;1.30;98.00;;;;;;5010838;28;20037;-72
2020/12/05 05:56:38;;;;;;;6.00;1.85;;;1.30;98.00;;;;;;5011553;28;20432;-71
2020/12/05 05:59:06;;;;;;;2.20;1.42;;;1.30;98.00;;;;;;4998541;28;20034;-71
2020/12/05 06:01:37;;;;;;;2.38;1.50;;;1.30;98.00;;;;;;5014947;28;20025;-71
2020/12/05 06:04:04;;;;;;;1.75;1.17;;;1.20;98.00;;;;;;5016294;28;20014;-71
2020/12/05 06:06:33;;;;;;;2.63;1.38;;;1.20;98.00;;;;;;5025118;28;20427;-71
2020/12/05 06:09:02;;;;;;;3.60;1.45;;;1.20;98.00;;;;;;5016611;28;20030;-71
2020/12/05 06:11:31;;;;;;;2.13;1.42;;;1.30;98.00;;;;;;5015159;28;20030;-71
2020/12/05 06:14:01;;;;;;;2.35;1.48;;;1.20;98.00;;;;;;5015373;28;20033;-71
2020/12/05 06:16:28;;;;;;;1.55;1.20;;;1.30;98.00;;;;;;5013649;28;20430;-71
2020/12/05 06:18:56;;;;;;;2.13;1.35;;;1.40;98.00;;;;;;5016044;28;20029;-71
2020/12/05 06:21:31;;;;;;;1.52;1.10;;;1.30;98.00;;;;;;5002723;28;20026;-71
2020/12/05 06:24:04;;;;;;;1.80;1.27;;;1.40;98.00;;;;;;5014412;28;20030;-71
2020/12/05 06:26:33;;;;;;;2.03;1.35;;;1.30;98.00;;;;;;5014568;28;20393;-71
2020/12/05 06:29:01;;;;;;;2.50;1.42;;;1.20;98.00;;;;;;5014264;28;20077;-71
2020/12/05 06:31:40;;;;;;;2.38;1.30;;;1.20;98.00;;;;;;5014401;28;20327;-71
2020/12/05 06:34:08;;;;;;;2.00;1.50;;;1.20;98.00;;;;;;5011604;28;20030;-71
2020/12/05 06:36:33;;;;;;;2.00;1.30;;;1.20;98.00;;;;;;5015219;28;20030;-71
2020/12/05 06:39:19;;;;;;;2.17;1.35;;;1.20;98.00;;;;;;5014692;28;20108;-71
2020/12/05 06:41:50;;;;;;;2.25;1.40;;;1.10;98.00;;;;;;5015586;28;20041;-71
2020/12/05 06:44:24;;;;;;;1.65;1.30;;;1.10;98.00;;;;;;5015374;28;20022;-71
2020/12/05 06:46:53;;;;;;;3.50;1.88;;;1.10;98.00;;;;;;5013757;28;20022;-71
2020/12/05 06:49:39;;;;;;;6.32;4.32;;;1.00;98.00;;;;;;5013084;28;20018;-71
2020/12/05 06:52:23;;;;;;;6.75;4.22;;;1.00;98.00;;;;;;5015393;28;20025;-71
2020/12/05 06:54:49;;;;;;;4.10;2.38;;;1.00;98.00;;;;;;5015043;28;20448;-71
2020/12/05 06:57:15;;;;;;;3.28;2.00;;;1.00;98.00;;;;;;5015617;28;20105;-71
2020/12/05 06:59:40;;;;;;;3.33;2.33;;;0.90;98.00;;;;;;5014606;28;20117;-71
2020/12/05 07:02:31;;;;;;;2.38;1.60;;;0.80;98.00;;;;;;5014457;28;20030;-71
2020/12/05 07:05:19;;;;;;;3.53;2.33;;;0.80;98.00;;;;;;5014906;28;20351;-71
2020/12/05 07:07:45;;;;;;;4.65;2.50;;;0.70;98.00;;;;;;5012884;28;20029;-71
2020/12/05 07:10:16;;;;;;;4.80;2.90;;;0.60;98.00;;;;;;5014859;28;20049;-71
2020/12/05 07:12:43;;;;;;;4.35;2.60;;;0.50;98.00;;;;;;5015227;28;20021;-71
2020/12/05 07:15:27;;;;;;;3.13;2.00;;;0.40;98.00;;;;;;5025510;28;20045;-71
2020/12/05 07:17:57;;;;;;;3.38;2.20;;;0.40;98.00;;;;;;4996300;28;20165;-71
2020/12/05 07:20:23;;;;;;;3.45;2.20;;;0.40;98.00;;;;;;5014925;28;20110;-71
2020/12/05 07:22:52;;;;;;;3.55;2.20;;;0.50;98.00;;;;;;5015703;28;20032;-70
2020/12/05 07:25:19;;;;;;;4.22;2.30;;;0.50;98.00;;;;;;5014996;28;20109;-70
2020/12/05 07:27:48;;;;;;;3.40;2.00;;;0.50;98.00;;;;;;5015033;28;20026;-70
2020/12/05 07:30:14;;;;;;;3.85;2.28;;;0.60;98.00;;;;;;5012465;28;20415;-70
2020/12/05 07:32:43;;;;;;;3.05;1.92;;;0.60;98.00;;;;;;4995032;28;20026;-70
2020/12/05 07:35:15;;;;;;;2.40;1.70;;;0.70;98.00;;;;;;5014773;28;20026;-72
2020/12/05 07:37:42;;;;;;;3.83;2.65;;;0.80;98.00;;;;;;4996058;28;20030;-71
2020/12/05 07:40:08;;;;;;;5.80;1.90;;;0.80;98.00;;;;;;4995831;28;20035;-71
2020/12/05 07:42:35;;;;;;;3.78;2.20;;;0.80;98.00;;;;;;5014638;28;20030;-71
2020/12/05 07:45:13;;;;;;;2.35;1.60;;;0.80;98.00;;;;;;5013134;28;20088;-71
2020/12/05 07:47:40;;;;;;;3.55;2.25;;;0.80;98.00;;;;;;5005050;28;20046;-71
2020/12/05 07:50:10;;;;;;;3.38;1.95;;;0.80;98.00;;;;;;5010641;28;20318;-70
2020/12/05 07:52:41;;;;;;;3.25;2.03;;;0.90;98.00;;;;;;5013893;28;20022;-71
2020/12/05 07:55:08;;;;;;;2.83;1.95;;;0.90;98.00;;;;;;5013539;28;20049;-70
2020/12/05 07:57:36;;;;;;;3.47;2.40;;;0.90;98.00;;;;;;5015131;28;20029;-70
2020/12/05 08:00:10;;;;;;;4.50;2.50;;;0.90;98.00;;;;;;5017845;28;20056;-70
2020/12/05 08:02:39;;;;;;;6.78;3.20;;;0.90;98.00;;;;;;5017043;28;20056;-70
2020/12/05 08:05:18;;;;;;;19.40;8.75;;;0.90;98.00;;;;;;5011790;28;20415;-70
2020/12/05 08:07:54;;;;;;;54.85;26.63;;;1.00;98.00;;;;;;5014371;28;20304;-70
2020/12/05 08:10:23;;;;;;;83.18;31.90;;;1.10;98.00;;;;;;5015922;28;20342;-70
2020/12/05 08:13:10;;;;;;;124.90;64.43;;;1.10;98.00;;;;;;5014743;28;20041;-70
2020/12/05 08:15:36;;;;;;;11.07;6.82;;;1.10;98.00;;;;;;5031253;28;20021;-71
2020/12/05 08:18:03;;;;;;;30.23;19.08;;;1.20;98.00;;;;;;5019852;28;20029;-70
2020/12/05 08:20:31;;;;;;;11.52;7.28;;;1.10;98.00;;;;;;5016011;28;20030;-71
2020/12/05 08:23:02;;;;;;;50.90;37.22;;;1.10;98.00;;;;;;5008726;28;20061;-70
2020/12/05 08:25:28;;;;;;;5.28;3.28;;;1.10;98.00;;;;;;5019341;28;20044;-70
2020/12/05 08:27:56;;;;;;;6.00;4.15;;;1.10;98.00;;;;;;5016469;28;20033;-69
2020/12/05 08:30:22;;;;;;;2.88;2.03;;;1.20;98.00;;;;;;5016691;28;20137;-70
2020/12/05 08:33:02;;;;;;;2.97;1.90;;;1.30;98.00;;;;;;5017215;28;20029;-69
2020/12/05 08:35:33;;;;;;;3.25;1.90;;;1.40;98.00;;;;;;5013420;28;20076;-70
2020/12/05 08:38:04;;;;;;;7.50;4.75;;;1.50;98.00;;;;;;5015491;28;20515;-70
2020/12/05 08:40:31;;;;;;;5.22;2.42;;;1.50;98.00;;;;;;5019263;28;20402;-69
2020/12/05 08:42:57;;;;;;;2.22;1.40;;;1.50;98.00;;;;;;5015895;28;20022;-70
2020/12/05 08:45:23;;;;;;;1.70;1.35;;;1.50;98.00;;;;;;5014840;28;20030;-70
2020/12/05 08:47:53;;;;;;;2.25;1.30;;;1.50;98.00;;;;;;5015427;28;20050;-70
2020/12/05 08:50:35;;;;;;;2.38;1.40;;;1.60;98.00;;;;;;5016357;28;20037;-70
2020/12/05 08:53:03;;;;;;;2.22;1.50;;;1.50;98.00;;;;;;5016053;28;20045;-71
2020/12/05 08:55:32;;;;;;;2.80;1.90;;;1.50;98.00;;;;;;5015653;28;20029;-70
2020/12/05 08:58:00;;;;;;;2.17;1.50;;;1.50;98.00;;;;;;5014314;28;20295;-70
2020/12/05 09:00:27;;;;;;;2.88;1.60;;;1.50;98.00;;;;;;5014203;28;20104;-70
2020/12/05 09:02:53;;;;;;;3.95;1.90;;;1.60;98.00;;;;;;5017732;28;20021;-70
2020/12/05 09:05:18;;;;;;;1.95;1.40;;;1.70;98.00;;;;;;5016448;28;20046;-71
2020/12/05 09:08:01;;;;;;;3.40;1.92;;;1.80;98.00;;;;;;5016082;28;20153;-70
2020/12/05 09:10:28;;;;;;;6.40;3.80;;;1.70;98.00;;;;;;5011548;28;20297;-70
2020/12/05 09:13:09;;;;;;;3.97;2.50;;;1.70;98.00;;;;;;5015738;28;20037;-70
2020/12/05 09:15:35;;;;;;;3.45;2.30;;;1.70;98.00;;;;;;5015308;28;20037;-70
2020/12/05 09:18:01;;;;;;;5.65;2.70;;;1.80;98.00;;;;;;5027042;28;20025;-70
2020/12/05 09:20:27;;;;;;;5.13;3.35;;;1.80;98.00;;;;;;5015864;28;20034;-71
2020/12/05 09:22:55;;;;;;;5.63;3.40;;;1.90;98.00;;;;;;5016382;28;21341;-71
2020/12/05 09:25:41;;;;;;;6.43;3.70;;;1.90;98.00;;;;;;5016250;28;20022;-72
2020/12/05 09:28:14;;;;;;;6.57;4.38;;;2.00;98.00;;;;;;5014559;28;20315;-71
2020/12/05 09:30:43;;;;;;;13.68;7.53;;;2.10;98.00;;;;;;5014057;28;20036;-71
2020/12/05 09:33:15;;;;;;;11.02;7.57;;;2.10;98.00;;;;;;5012018;28;20044;-71
2020/12/05 09:35:41;;;;;;;10.82;8.07;;;2.00;98.00;;;;;;5011680;28;20026;-70
2020/12/05 09:38:07;;;;;;;9.50;6.43;;;2.00;98.00;;;;;;5016537;28;20125;-71
2020/12/05 09:40:33;;;;;;;8.85;5.78;;;2.00;98.00;;;;;;5014732;28;20113;-71
2020/12/05 09:43:01;;;;;;;6.85;4.60;;;2.00;98.00;;;;;;5013153;28;20033;-71
2020/12/05 09:45:28;;;;;;;6.93;4.97;;;2.00;98.00;;;;;;5013531;28;20037;-70
2020/12/05 09:47:55;;;;;;;5.63;3.97;;;2.00;98.00;;;;;;5012978;28;20050;-71
2020/12/05 09:50:21;;;;;;;9.88;6.30;;;2.10;98.00;;;;;;5016213;28;20036;-71
2020/12/05 09:52:47;;;;;;;11.05;7.53;;;2.10;98.00;;;;;;5014791;28;20026;-70
2020/12/05 09:55:13;;;;;;;6.68;5.25;;;2.10;98.00;;;;;;5016177;28;20030;-70
2020/12/05 09:57:40;;;;;;;6.43;4.20;;;2.10;98.00;;;;;;5011144;28;20092;-70
2020/12/05 10:00:11;;;;;;;6.63;4.30;;;2.20;98.00;;;;;;5007993;28;20351;-70
2020/12/05 10:02:38;;;;;;;9.75;5.25;;;2.30;98.00;;;;;;5009290;28;20080;-71
2020/12/05 10:05:08;;;;;;;11.13;5.82;;;2.30;98.00;;;;;;5015618;28;20022;-71
2020/12/05 10:07:33;;;;;;;10.70;6.22;;;2.30;98.00;;;;;;5014133;28;20029;-70
2020/12/05 10:09:59;;;;;;;12.43;6.28;;;2.30;98.00;;;;;;5011671;28;20034;-71
2020/12/05 10:12:25;;;;;;;14.40;7.55;;;2.30;98.00;;;;;;5010869;28;20072;-71
2020/12/05 10:14:53;;;;;;;11.13;7.25;;;2.20;98.00;;;;;;5012505;28;20026;-71
2020/12/05 10:17:19;;;;;;;9.32;5.80;;;2.20;98.00;;;;;;5030716;28;20030;-70
2020/12/05 10:19:44;;;;;;;12.35;7.97;;;2.20;98.00;;;;;;5013468;28;20034;-70
2020/12/05 10:22:10;;;;;;;9.90;7.30;;;2.30;98.00;;;;;;5026586;28;20022;-70
2020/12/05 10:24:38;;;;;;;11.60;8.38;;;2.20;98.00;;;;;;5019170;28;20021;-70
2020/12/05 10:27:04;;;;;;;13.95;7.65;;;2.10;98.00;;;;;;5019953;28;20419;-71
2020/12/05 10:29:30;;;;;;;13.05;7.93;;;2.10;98.00;;;;;;5013251;28;20044;-72
2020/12/05 10:31:56;;;;;;;11.18;7.60;;;2.10;98.00;;;;;;5013454;28;20034;-72
2020/12/05 10:34:22;;;;;;;8.80;6.43;;;2.10;98.00;;;;;;5015345;28;20022;-70
2020/12/05 10:36:48;;;;;;;9.32;6.25;;;2.10;98.00;;;;;;5010855;28;20036;-72
2020/12/05 10:39:14;;;;;;;10.95;6.72;;;2.00;98.00;;;;;;5014399;28;20029;-71
2020/12/05 10:41:41;;;;;;;9.68;6.85;;;2.00;98.00;;;;;;5019122;28;20182;-71
2020/12/05 10:44:09;;;;;;;11.25;7.28;;;1.90;98.00;;;;;;5018749;28;20018;-71
2020/12/05 10:46:43;;;;;;;11.13;8.65;;;1.90;98.00;;;;;;5019059;28;20030;-72
2020/12/05 10:49:10;;;;;;;11.52;7.82;;;1.90;98.00;;;;;;5022435;28;20057;-72
2020/12/05 10:51:36;;;;;;;11.70;8.75;;;1.90;98.00;;;;;;5015613;28;20022;-71
2020/12/05 10:54:06;;;;;;;8.82;6.88;;;1.90;98.00;;;;;;5015468;28;20368;-71
2020/12/05 10:56:37;;;;;;;9.90;7.03;;;2.00;98.00;;;;;;5010482;28;20029;-71
2020/12/05 10:59:03;;;;;;;11.85;7.72;;;1.90;98.00;;;;;;5010856;28;20076;-71
2020/12/05 11:01:28;;;;;;;11.48;8.23;;;2.00;98.00;;;;;;5012976;28;20046;-71
2020/12/05 11:03:54;;;;;;;10.10;7.35;;;2.00;98.00;;;;;;5014170;28;20172;-71
2020/12/05 11:06:25;;;;;;;11.15;7.43;;;2.00;98.00;;;;;;5013232;28;20034;-70
2020/12/05 11:08:51;;;;;;;8.90;6.40;;;2.10;98.00;;;;;;5009937;28;20026;-71
2020/12/05 11:11:17;;;;;;;11.60;8.35;;;2.10;98.00;;;;;;5012167;28;20033;-71
2020/12/05 11:13:43;;;;;;;12.10;9.30;;;2.20;98.00;;;;;;5012528;28;20470;-70
2020/12/05 11:16:09;;;;;;;12.18;8.82;;;2.30;98.00;;;;;;5009867;28;20113;-71
2020/12/05 11:18:35;;;;;;;14.48;10.93;;;2.20;98.00;;;;;;5011173;28;20116;-71
2020/12/05 11:21:01;;;;;;;12.68;10.10;;;2.20;98.00;;;;;;5010816;28;20048;-69
2020/12/05 11:23:26;;;;;;;17.30;12.80;;;2.30;98.00;;;;;;5011460;28;20030;-71
2020/12/05 11:25:52;;;;;;;20.90;13.27;;;2.30;98.00;;;;;;5010594;28;20026;-71
2020/12/05 11:28:18;;;;;;;15.32;11.25;;;2.20;98.00;;;;;;5007043;28;20112;-72
2020/12/05 11:30:43;;;;;;;14.55;11.38;;;2.10;98.00;;;;;;5006288;28;20033;-71
2020/12/05 11:33:09;;;;;;;16.42;11.32;;;2.10;98.00;;;;;;5013306;28;20136;-72
2020/12/05 11:35:35;;;;;;;12.88;9.75;;;2.10;98.00;;;;;;5015628;28;20292;-71
2020/12/05 11:38:01;;;;;;;13.65;9.93;;;2.10;98.00;;;;;;5014903;28;20033;-71
2020/12/05 11:40:27;;;;;;;12.43;8.63;;;2.20;98.00;;;;;;5020853;28;20038;-72
2020/12/05 11:42:53;;;;;;;15.18;10.05;;;2.10;98.00;;;;;;5012497;28;20033;-72
2020/12/05 11:45:20;;;;;;;13.23;8.05;;;2.00;98.00;;;;;;5015195;28;20097;-71
2020/12/05 11:47:46;;;;;;;10.77;7.22;;;2.00;98.00;;;;;;5011644;28;20042;-72
2020/12/05 11:50:12;;;;;;;11.98;8.18;;;2.00;98.00;;;;;;5014278;28;20030;-71
2020/12/05 11:52:37;;;;;;;13.93;10.02;;;2.00;98.00;;;;;;5015117;28;20104;-72
2020/12/05 11:55:03;;;;;;;12.00;8.30;;;1.90;98.00;;;;;;5014218;28;20029;-72
2020/12/05 11:57:29;;;;;;;11.27;8.20;;;1.90;98.00;;;;;;5015221;28;20026;-72
2020/12/05 11:59:57;;;;;;;14.90;9.55;;;1.90;98.00;;;;;;5015089;28;20664;-72
2020/12/05 12:02:22;;;;;;;11.88;8.55;;;1.90;98.00;;;;;;5027682;28;20026;-73
2020/12/05 12:04:48;;;;;;;11.70;7.88;;;1.90;98.00;;;;;;5014810;28;20037;-73
2020/12/05 12:07:14;;;;;;;12.90;9.40;;;1.90;98.00;;;;;;5014048;28;20105;-73
2020/12/05 12:09:42;;;;;;;12.75;8.27;;;1.90;98.00;;;;;;5014474;28;21642;-72
2020/12/05 12:12:08;;;;;;;12.00;8.43;;;1.90;98.00;;;;;;5013834;28;20111;-72
2020/12/05 12:14:33;;;;;;;16.08;11.18;;;1.90;98.00;;;;;;5014776;28;20407;-73
2020/12/05 12:16:59;;;;;;;19.02;12.93;;;1.90;98.00;;;;;;5013290;28;21917;-73
2020/12/05 12:19:24;;;;;;;19.80;13.23;;;1.90;98.00;;;;;;5010938;28;20099;-73
2020/12/05 12:21:50;;;;;;;18.25;13.65;;;1.90;98.00;;;;;;5013661;28;20022;-73
2020/12/05 12:24:16;;;;;;;16.63;11.10;;;1.90;98.00;;;;;;5013762;28;20022;-73
2020/12/05 12:26:41;;;;;;;16.15;11.35;;;1.90;98.00;;;;;;5013693;28;20779;-73
2020/12/05 12:29:07;;;;;;;16.90;10.95;;;2.00;98.00;;;;;;5014220;28;20022;-73
2020/12/05 12:31:32;;;;;;;16.48;10.73;;;2.00;98.00;;;;;;5013203;28;20113;-73
2020/12/05 12:33:58;;;;;;;14.77;9.52;;;2.00;98.00;;;;;;5012912;28;20061;-73
2020/12/05 12:36:24;;;;;;;14.07;9.32;;;2.10;98.00;;;;;;5014716;28;20079;-73
2020/12/05 12:38:50;;;;;;;15.00;9.18;;;2.10;98.00;;;;;;5014763;28;20512;-73
2020/12/05 12:41:17;;;;;;;13.45;8.77;;;2.20;98.00;;;;;;5012998;28;20037;-72
2020/12/05 12:43:44;;;;;;;10.32;7.07;;;2.30;98.00;;;;;;5009786;28;20328;-73
2020/12/05 12:46:10;;;;;;;11.15;7.32;;;2.40;98.00;;;;;;5012417;28;20415;-74
2020/12/05 12:48:38;;;;;;;13.18;6.85;;;2.50;98.00;;;;;;5014431;28;20049;-73
2020/12/05 12:51:03;;;;;;;24.63;14.52;;;2.50;98.00;;;;;;5014068;28;20026;-73
2020/12/05 12:53:29;;;;;;;10.15;6.75;;;2.60;98.00;;;;;;5007877;28;20083;-73